Hubbell Corners, New York
Current Conditions -  °F | °C
As of 7:35 PM on Monday 22 Dec 2014 (Local Time) from KMSV Reporting Station
Overcast Overcast  
Wind Chill: 25°   Ceiling: 200
Heat Index: 34°   Visibility: 3mi
Dew Point: 34°   Wind: 13mph
Humidity: 100%   Direction: 90°E
Pressure: 30.19"   Gusts: NA
Location:  42.3044°N, 74.5553°W
Report Text: KMSV 230035Z AUTO 09011KT 3SM OVC002 01/01 A3019 RMK AO1
Loading
Personal Weather Stations






























Interactive Weather Map New forecast layout! Learn more

10-Day Weather Forecast

Advertisements
Track Severe Weather on mobile